EWG8EM EDDH-LGIR
Flight info
| Callsign | EWG8EM |
|---|---|
| Flight time | 3h 2m |
| Altitude | 35000 |
| Route | AMLUH2C/05 AMLUH M852 DENIX DCT ZUCKA DCT ALOSO DCT ARMUT DCT LULAR DCT DEXIT DCT NURMI DCT OBUTI DCT LURID DCT ENFAR DCT BITLA UN132 KEA UL607 GIVIS UT514 XAVIS |
| Aircraft | A320/M-SDE2E3FGIJ1RWXYZ/EB1 |
Departure
| Time | 2026-05-06 11:36 |
|---|---|
| Airport | Hamburg Helmut Schmidt Airport (EDDH) |
Arrival
| Time | 2026-05-06 14:39 |
|---|---|
| Airport | Heraklion International Nikos Kazantzakis Airport (LGIR) |
| Time | Latitude | Longitude | Altitude | Speed | Heading |
|---|---|---|---|---|---|
| 2026-05-06 10:57 | 53.63073 | 10.00387 | 49 ft | 0 kts | 93° |
| 2026-05-06 11:24 | 53.63074 | 10.00357 | 48 ft | 4 kts | 93° |
| 2026-05-06 11:25 | 53.63076 | 10.00320 | 48 ft | 3 kts | 94° |
| 2026-05-06 11:25 | 53.63081 | 10.00279 | 47 ft | 4 kts | 130° |
| 2026-05-06 11:25 | 53.63100 | 10.00261 | 47 ft | 2 kts | 176° |
| 2026-05-06 11:25 | 53.63101 | 10.00260 | 47 ft | 0 kts | 176° |
| 2026-05-06 11:29 | 53.63094 | 10.00261 | 43 ft | 6 kts | 176° |
| 2026-05-06 11:30 | 53.63015 | 10.00205 | 47 ft | 16 kts | 212° |
| 2026-05-06 11:30 | 53.62927 | 10.00113 | 48 ft | 13 kts | 212° |
| 2026-05-06 11:30 | 53.62860 | 10.00032 | 48 ft | 10 kts | 219° |
| 2026-05-06 11:30 | 53.62792 | 9.99945 | 47 ft | 17 kts | 208° |
| 2026-05-06 11:31 | 53.62676 | 9.99843 | 43 ft | 18 kts | 215° |
| 2026-05-06 11:31 | 53.62630 | 9.99685 | 47 ft | 14 kts | 258° |
| 2026-05-06 11:31 | 53.62608 | 9.99485 | 44 ft | 22 kts | 258° |
| 2026-05-06 11:31 | 53.62576 | 9.99212 | 44 ft | 24 kts | 259° |
| 2026-05-06 11:32 | 53.62546 | 9.98945 | 47 ft | 23 kts | 259° |
| 2026-05-06 11:32 | 53.62518 | 9.98698 | 45 ft | 20 kts | 259° |
| 2026-05-06 11:32 | 53.62494 | 9.98481 | 47 ft | 18 kts | 259° |
| 2026-05-06 11:32 | 53.62468 | 9.98247 | 47 ft | 23 kts | 258° |
| 2026-05-06 11:33 | 53.62398 | 9.98026 | 47 ft | 20 kts | 229° |
| 2026-05-06 11:33 | 53.62314 | 9.97856 | 47 ft | 18 kts | 230° |
| 2026-05-06 11:33 | 53.62238 | 9.97701 | 47 ft | 18 kts | 230° |
| 2026-05-06 11:33 | 53.62142 | 9.97506 | 47 ft | 26 kts | 230° |
| 2026-05-06 11:34 | 53.62033 | 9.97288 | 47 ft | 24 kts | 230° |
| 2026-05-06 11:34 | 53.61925 | 9.97068 | 47 ft | 24 kts | 230° |
| 2026-05-06 11:34 | 53.61820 | 9.96854 | 47 ft | 23 kts | 230° |
| 2026-05-06 11:34 | 53.61722 | 9.96657 | 47 ft | 21 kts | 230° |
| 2026-05-06 11:35 | 53.61675 | 9.96462 | 46 ft | 17 kts | 296° |
| 2026-05-06 11:35 | 53.61786 | 9.96421 | 45 ft | 18 kts | 6° |
| 2026-05-06 11:35 | 53.61887 | 9.96493 | 44 ft | 14 kts | 47° |
| 2026-05-06 11:35 | 53.61990 | 9.96697 | 42 ft | 48 kts | 50° |
| 2026-05-06 11:36 | 53.62350 | 9.97424 | 39 ft | 111 kts | 50° |
| 2026-05-06 11:36 | 53.62956 | 9.98649 | 48 ft | 159 kts | 50° |
| 2026-05-06 11:36 | 53.63677 | 10.00107 | 634 ft | 157 kts | 51° |
| 2026-05-06 11:36 | 53.64371 | 10.01530 | 1344 ft | 158 kts | 50° |
| 2026-05-06 11:37 | 53.65076 | 10.02954 | 2027 ft | 157 kts | 51° |
| 2026-05-06 11:37 | 53.65777 | 10.04348 | 2664 ft | 155 kts | 51° |
| 2026-05-06 11:37 | 53.66486 | 10.05714 | 3256 ft | 155 kts | 50° |
| 2026-05-06 11:37 | 53.67248 | 10.07107 | 3624 ft | 170 kts | 50° |
| 2026-05-06 11:38 | 53.68251 | 10.08287 | 4014 ft | 188 kts | 19° |
| 2026-05-06 11:38 | 53.69615 | 10.08213 | 4363 ft | 214 kts | 345° |
| 2026-05-06 11:38 | 53.70900 | 10.06670 | 4752 ft | 242 kts | 310° |
| 2026-05-06 11:38 | 53.71615 | 10.03984 | 5235 ft | 266 kts | 280° |
| 2026-05-06 11:39 | 53.71453 | 10.00784 | 5697 ft | 287 kts | 249° |
| 2026-05-06 11:39 | 53.70292 | 9.98114 | 6529 ft | 284 kts | 214° |
| 2026-05-06 11:39 | 53.68478 | 9.96916 | 7302 ft | 280 kts | 181° |
| 2026-05-06 11:39 | 53.66591 | 9.97462 | 8116 ft | 277 kts | 159° |
| 2026-05-06 11:40 | 53.64733 | 9.98467 | 8871 ft | 281 kts | 161° |
| 2026-05-06 11:40 | 53.62842 | 9.99416 | 9606 ft | 287 kts | 163° |
| 2026-05-06 11:40 | 53.60900 | 10.00352 | 10183 ft | 297 kts | 164° |
| 2026-05-06 11:40 | 53.58833 | 10.01332 | 10378 ft | 320 kts | 164° |
| 2026-05-06 11:41 | 53.56682 | 10.02350 | 11114 ft | 320 kts | 163° |
| 2026-05-06 11:41 | 53.54550 | 10.03366 | 11957 ft | 318 kts | 162° |
| 2026-05-06 11:41 | 53.52412 | 10.04391 | 12728 ft | 319 kts | 162° |
| 2026-05-06 11:41 | 53.50270 | 10.05412 | 13456 ft | 321 kts | 163° |
| 2026-05-06 11:42 | 53.48105 | 10.06446 | 14024 ft | 326 kts | 163° |
| 2026-05-06 11:42 | 53.45921 | 10.07493 | 14680 ft | 327 kts | 163° |
| 2026-05-06 11:42 | 53.43727 | 10.08547 | 15242 ft | 330 kts | 164° |
| 2026-05-06 11:42 | 53.41509 | 10.09611 | 15829 ft | 332 kts | 164° |
| 2026-05-06 11:43 | 53.39275 | 10.10685 | 16456 ft | 335 kts | 164° |
| 2026-05-06 11:43 | 53.37012 | 10.11771 | 16847 ft | 346 kts | 164° |
| 2026-05-06 11:43 | 53.34643 | 10.12902 | 16985 ft | 363 kts | 164° |
| 2026-05-06 11:44 | 53.29615 | 10.15299 | 17510 ft | 385 kts | 165° |
| 2026-05-06 11:44 | 53.27028 | 10.16530 | 18021 ft | 388 kts | 165° |
| 2026-05-06 11:44 | 53.24425 | 10.17766 | 18480 ft | 391 kts | 165° |
| 2026-05-06 11:44 | 53.21802 | 10.19012 | 18893 ft | 393 kts | 165° |
| 2026-05-06 11:45 | 53.19159 | 10.20265 | 19321 ft | 396 kts | 165° |
| 2026-05-06 11:45 | 53.16506 | 10.21525 | 19733 ft | 399 kts | 165° |
| 2026-05-06 11:45 | 53.13824 | 10.22800 | 20151 ft | 402 kts | 165° |
| 2026-05-06 11:45 | 53.11123 | 10.24080 | 20510 ft | 405 kts | 166° |
| 2026-05-06 11:46 | 53.08401 | 10.25365 | 20906 ft | 408 kts | 165° |
| 2026-05-06 11:46 | 53.05659 | 10.26653 | 21286 ft | 411 kts | 166° |
| 2026-05-06 11:46 | 53.02897 | 10.27945 | 21676 ft | 414 kts | 166° |
| 2026-05-06 11:46 | 53.00122 | 10.29245 | 22072 ft | 416 kts | 165° |
| 2026-05-06 11:47 | 52.97357 | 10.30544 | 22439 ft | 419 kts | 166° |
| 2026-05-06 11:47 | 52.94506 | 10.31882 | 22845 ft | 421 kts | 165° |
| 2026-05-06 11:47 | 52.91678 | 10.33205 | 23189 ft | 424 kts | 165° |
| 2026-05-06 11:47 | 52.88863 | 10.34517 | 23536 ft | 426 kts | 166° |
| 2026-05-06 11:48 | 52.85970 | 10.35862 | 23860 ft | 428 kts | 166° |
| 2026-05-06 11:48 | 52.83099 | 10.37199 | 24216 ft | 429 kts | 165° |
| 2026-05-06 11:48 | 52.80225 | 10.38540 | 24536 ft | 431 kts | 165° |
| 2026-05-06 11:48 | 52.77333 | 10.39890 | 24811 ft | 433 kts | 165° |
| 2026-05-06 11:49 | 52.74431 | 10.41240 | 25179 ft | 433 kts | 164° |
| 2026-05-06 11:49 | 52.71516 | 10.42591 | 25471 ft | 435 kts | 164° |
| 2026-05-06 11:49 | 52.68589 | 10.43946 | 25720 ft | 438 kts | 164° |
| 2026-05-06 11:49 | 52.65645 | 10.45309 | 26056 ft | 440 kts | 164° |
| 2026-05-06 11:50 | 52.62690 | 10.46673 | 26385 ft | 441 kts | 164° |
| 2026-05-06 11:50 | 52.59737 | 10.48034 | 26697 ft | 442 kts | 164° |
| 2026-05-06 11:50 | 52.56772 | 10.49394 | 26925 ft | 444 kts | 164° |
| 2026-05-06 11:50 | 52.53787 | 10.50762 | 27234 ft | 445 kts | 163° |
| 2026-05-06 11:51 | 52.50800 | 10.52131 | 27463 ft | 447 kts | 164° |
| 2026-05-06 11:51 | 52.47804 | 10.53505 | 27789 ft | 446 kts | 163° |
| 2026-05-06 11:51 | 52.44827 | 10.54869 | 28204 ft | 444 kts | 163° |
| 2026-05-06 11:51 | 52.41852 | 10.56230 | 28648 ft | 443 kts | 163° |
| 2026-05-06 11:52 | 52.38893 | 10.57579 | 29058 ft | 441 kts | 163° |
| 2026-05-06 11:52 | 52.35936 | 10.58925 | 29458 ft | 440 kts | 163° |
| 2026-05-06 11:52 | 52.32990 | 10.60264 | 29830 ft | 439 kts | 163° |
| 2026-05-06 11:52 | 52.30053 | 10.61599 | 30141 ft | 438 kts | 163° |
| 2026-05-06 11:53 | 52.27117 | 10.62933 | 30454 ft | 438 kts | 165° |
| 2026-05-06 11:53 | 52.24181 | 10.64263 | 30740 ft | 437 kts | 165° |
| 2026-05-06 11:53 | 52.21251 | 10.65588 | 31037 ft | 437 kts | 165° |
| 2026-05-06 11:53 | 52.18327 | 10.66909 | 31324 ft | 436 kts | 166° |
| 2026-05-06 11:54 | 52.15402 | 10.68226 | 31625 ft | 436 kts | 166° |
| 2026-05-06 11:54 | 52.12481 | 10.69540 | 31941 ft | 435 kts | 166° |
| 2026-05-06 11:54 | 52.09565 | 10.70855 | 32245 ft | 435 kts | 166° |
| 2026-05-06 11:54 | 52.06654 | 10.72166 | 32541 ft | 434 kts | 166° |
| 2026-05-06 11:55 | 52.03740 | 10.73477 | 32821 ft | 434 kts | 166° |
| 2026-05-06 11:55 | 52.00837 | 10.74785 | 33099 ft | 433 kts | 167° |
| 2026-05-06 11:55 | 51.97931 | 10.76092 | 33384 ft | 433 kts | 167° |
| 2026-05-06 11:55 | 51.95071 | 10.77371 | 33669 ft | 432 kts | 167° |
| 2026-05-06 11:56 | 51.92134 | 10.78675 | 33927 ft | 432 kts | 168° |
| 2026-05-06 11:56 | 51.89277 | 10.79943 | 34154 ft | 431 kts | 168° |
| 2026-05-06 11:56 | 51.86382 | 10.81233 | 34384 ft | 431 kts | 168° |
| 2026-05-06 11:56 | 51.83489 | 10.82523 | 34598 ft | 431 kts | 168° |
| 2026-05-06 11:57 | 51.80591 | 10.83813 | 34749 ft | 432 kts | 168° |
| 2026-05-06 11:57 | 51.77690 | 10.85103 | 34787 ft | 434 kts | 168° |
| 2026-05-06 11:57 | 51.71873 | 10.87676 | 34788 ft | 433 kts | 168° |
| 2026-05-06 11:58 | 51.66150 | 10.90705 | 34783 ft | 438 kts | 158° |
| 2026-05-06 11:58 | 51.60746 | 10.95307 | 34783 ft | 439 kts | 156° |
| 2026-05-06 11:59 | 51.55353 | 10.99901 | 34778 ft | 439 kts | 156° |
| 2026-05-06 11:59 | 51.49952 | 11.04470 | 34776 ft | 438 kts | 156° |
| 2026-05-06 12:00 | 51.44560 | 11.09009 | 34775 ft | 437 kts | 156° |
| 2026-05-06 12:00 | 51.39178 | 11.13537 | 34756 ft | 437 kts | 157° |
| 2026-05-06 12:01 | 51.33786 | 11.18070 | 34758 ft | 437 kts | 157° |
| 2026-05-06 12:01 | 51.28400 | 11.22583 | 34765 ft | 437 kts | 157° |
| 2026-05-06 12:02 | 51.23000 | 11.27090 | 34744 ft | 439 kts | 157° |
| 2026-05-06 12:02 | 51.17589 | 11.31604 | 34746 ft | 440 kts | 157° |
| 2026-05-06 12:03 | 51.12160 | 11.36128 | 34751 ft | 440 kts | 157° |
| 2026-05-06 12:03 | 51.06729 | 11.40641 | 34753 ft | 441 kts | 157° |
| 2026-05-06 12:04 | 51.01274 | 11.45147 | 34734 ft | 441 kts | 158° |
| 2026-05-06 12:04 | 50.95833 | 11.49629 | 34765 ft | 440 kts | 158° |
| 2026-05-06 12:05 | 50.90428 | 11.54072 | 34776 ft | 440 kts | 158° |
| 2026-05-06 12:05 | 50.84963 | 11.58562 | 34783 ft | 439 kts | 158° |
| 2026-05-06 12:06 | 50.79574 | 11.62971 | 34784 ft | 439 kts | 158° |
| 2026-05-06 12:06 | 50.74151 | 11.67382 | 34774 ft | 438 kts | 158° |
| 2026-05-06 12:07 | 50.68674 | 11.71497 | 34792 ft | 433 kts | 163° |
| 2026-05-06 12:07 | 50.63105 | 11.75089 | 34768 ft | 432 kts | 163° |
| 2026-05-06 12:08 | 50.57538 | 11.78669 | 34783 ft | 432 kts | 163° |
| 2026-05-06 12:08 | 50.51929 | 11.82254 | 34798 ft | 432 kts | 163° |
| 2026-05-06 12:09 | 50.46370 | 11.85804 | 34808 ft | 432 kts | 163° |
| 2026-05-06 12:09 | 50.40837 | 11.89335 | 34815 ft | 432 kts | 163° |
| 2026-05-06 12:10 | 50.35280 | 11.92869 | 34815 ft | 431 kts | 163° |
| 2026-05-06 12:10 | 50.29724 | 11.96396 | 34810 ft | 431 kts | 163° |
| 2026-05-06 12:11 | 50.24161 | 11.99909 | 34804 ft | 431 kts | 164° |
| 2026-05-06 12:11 | 50.18594 | 12.03417 | 34768 ft | 431 kts | 164° |
| 2026-05-06 12:12 | 50.13033 | 12.06925 | 34776 ft | 432 kts | 164° |
| 2026-05-06 12:12 | 50.08394 | 12.09838 | 34777 ft | 432 kts | 164° |
| 2026-05-06 12:13 | 50.02822 | 12.13335 | 34774 ft | 432 kts | 164° |
| 2026-05-06 12:13 | 49.97242 | 12.16825 | 34773 ft | 432 kts | 164° |
| 2026-05-06 12:14 | 49.91665 | 12.20304 | 34791 ft | 432 kts | 164° |
| 2026-05-06 12:14 | 49.86086 | 12.23759 | 34793 ft | 432 kts | 164° |
| 2026-05-06 12:15 | 49.80511 | 12.27215 | 34799 ft | 432 kts | 164° |
| 2026-05-06 12:15 | 49.74943 | 12.30670 | 34758 ft | 431 kts | 164° |
| 2026-05-06 12:16 | 49.69708 | 12.35431 | 34778 ft | 445 kts | 148° |
| 2026-05-06 12:16 | 49.64883 | 12.41406 | 34778 ft | 444 kts | 148° |
| 2026-05-06 12:17 | 49.60043 | 12.47351 | 34786 ft | 444 kts | 148° |
| 2026-05-06 12:17 | 49.55204 | 12.53262 | 34786 ft | 444 kts | 148° |
| 2026-05-06 12:18 | 49.50358 | 12.59155 | 34781 ft | 444 kts | 148° |
| 2026-05-06 12:18 | 49.45511 | 12.65047 | 34763 ft | 444 kts | 149° |
| 2026-05-06 12:19 | 49.40668 | 12.70934 | 34773 ft | 444 kts | 149° |
| 2026-05-06 12:19 | 49.35895 | 12.76984 | 34786 ft | 450 kts | 141° |
| 2026-05-06 12:20 | 49.31554 | 12.83932 | 34784 ft | 452 kts | 141° |
| 2026-05-06 12:20 | 49.27206 | 12.90900 | 34786 ft | 452 kts | 141° |
| 2026-05-06 12:21 | 49.22864 | 12.97835 | 34778 ft | 452 kts | 141° |
| 2026-05-06 12:21 | 49.18503 | 13.04763 | 34784 ft | 452 kts | 141° |
| 2026-05-06 12:22 | 49.14138 | 13.11671 | 34790 ft | 452 kts | 141° |
| 2026-05-06 12:22 | 49.10089 | 13.18070 | 34790 ft | 453 kts | 141° |
| 2026-05-06 12:23 | 49.05706 | 13.24981 | 34810 ft | 453 kts | 141° |
| 2026-05-06 12:23 | 49.01326 | 13.31881 | 34781 ft | 453 kts | 141° |
| 2026-05-06 12:24 | 48.96948 | 13.38753 | 34788 ft | 453 kts | 141° |
| 2026-05-06 12:24 | 48.92556 | 13.45612 | 34781 ft | 452 kts | 142° |
| 2026-05-06 12:25 | 48.88404 | 13.52077 | 34783 ft | 453 kts | 142° |
| 2026-05-06 12:25 | 48.84042 | 13.58873 | 34787 ft | 452 kts | 142° |
| 2026-05-06 12:26 | 48.79640 | 13.65701 | 34747 ft | 452 kts | 142° |
| 2026-05-06 12:26 | 48.75122 | 13.72265 | 34763 ft | 445 kts | 150° |
| 2026-05-06 12:27 | 48.70199 | 13.77947 | 34769 ft | 445 kts | 150° |
| 2026-05-06 12:27 | 48.65263 | 13.83586 | 34776 ft | 445 kts | 150° |
| 2026-05-06 12:28 | 48.60317 | 13.89231 | 34784 ft | 445 kts | 150° |
| 2026-05-06 12:28 | 48.55384 | 13.94872 | 34790 ft | 445 kts | 150° |
| 2026-05-06 12:29 | 48.50444 | 14.00508 | 34761 ft | 445 kts | 150° |
| 2026-05-06 12:29 | 48.45498 | 14.06130 | 34767 ft | 446 kts | 150° |
| 2026-05-06 12:30 | 48.40534 | 14.11755 | 34771 ft | 446 kts | 151° |
| 2026-05-06 12:30 | 48.35575 | 14.17374 | 34774 ft | 446 kts | 151° |
| 2026-05-06 12:31 | 48.30620 | 14.22976 | 34777 ft | 446 kts | 151° |
| 2026-05-06 12:31 | 48.25657 | 14.28557 | 34747 ft | 446 kts | 151° |
| 2026-05-06 12:32 | 48.20687 | 14.34129 | 34757 ft | 446 kts | 151° |
| 2026-05-06 12:32 | 48.15705 | 14.39700 | 34763 ft | 447 kts | 152° |
| 2026-05-06 12:33 | 48.10730 | 14.45266 | 34786 ft | 446 kts | 152° |
| 2026-05-06 12:33 | 48.05755 | 14.50823 | 34795 ft | 446 kts | 152° |
| 2026-05-06 12:34 | 48.00785 | 14.56343 | 34797 ft | 445 kts | 152° |
| 2026-05-06 12:34 | 47.95806 | 14.61853 | 34773 ft | 446 kts | 152° |
| 2026-05-06 12:35 | 47.90815 | 14.67380 | 34770 ft | 447 kts | 152° |
| 2026-05-06 12:35 | 47.85816 | 14.72899 | 34785 ft | 448 kts | 152° |
| 2026-05-06 12:36 | 47.80802 | 14.78415 | 34788 ft | 448 kts | 152° |
| 2026-05-06 12:36 | 47.75791 | 14.83928 | 34807 ft | 448 kts | 152° |
| 2026-05-06 12:37 | 47.70773 | 14.89427 | 34792 ft | 449 kts | 151° |
| 2026-05-06 12:37 | 47.65734 | 14.94918 | 34808 ft | 449 kts | 151° |
| 2026-05-06 12:38 | 47.60668 | 15.00349 | 34816 ft | 449 kts | 152° |
| 2026-05-06 12:38 | 47.55578 | 15.05740 | 34828 ft | 450 kts | 152° |
| 2026-05-06 12:39 | 47.50486 | 15.11117 | 34834 ft | 450 kts | 152° |
| 2026-05-06 12:39 | 47.45394 | 15.16493 | 34822 ft | 450 kts | 152° |
| 2026-05-06 12:40 | 47.40299 | 15.21878 | 34813 ft | 451 kts | 151° |
| 2026-05-06 12:40 | 47.35177 | 15.27284 | 34827 ft | 454 kts | 152° |
| 2026-05-06 12:41 | 47.30027 | 15.32695 | 34838 ft | 455 kts | 152° |
| 2026-05-06 12:41 | 47.24875 | 15.38101 | 34843 ft | 455 kts | 152° |
| 2026-05-06 12:42 | 47.19706 | 15.43500 | 34848 ft | 456 kts | 152° |
| 2026-05-06 12:42 | 47.14528 | 15.48894 | 34845 ft | 458 kts | 151° |
| 2026-05-06 12:43 | 47.09327 | 15.54307 | 34864 ft | 458 kts | 151° |
| 2026-05-06 12:43 | 47.04125 | 15.59716 | 34871 ft | 458 kts | 151° |
| 2026-05-06 12:44 | 46.98916 | 15.65111 | 34873 ft | 458 kts | 151° |
| 2026-05-06 12:44 | 46.93706 | 15.70489 | 34881 ft | 459 kts | 151° |
| 2026-05-06 12:45 | 46.88488 | 15.75859 | 34866 ft | 459 kts | 150° |
| 2026-05-06 12:46 | 46.80654 | 15.83921 | 34879 ft | 459 kts | 150° |
| 2026-05-06 12:46 | 46.75464 | 15.89239 | 34892 ft | 459 kts | 151° |
| 2026-05-06 12:47 | 46.70238 | 15.94575 | 34891 ft | 459 kts | 151° |
| 2026-05-06 12:47 | 46.65007 | 15.99900 | 34900 ft | 458 kts | 151° |
| 2026-05-06 12:48 | 46.59783 | 16.05205 | 34909 ft | 458 kts | 151° |
| 2026-05-06 12:48 | 46.54563 | 16.10514 | 34917 ft | 457 kts | 151° |
| 2026-05-06 12:49 | 46.49353 | 16.15793 | 34912 ft | 456 kts | 152° |
| 2026-05-06 12:49 | 46.44139 | 16.21052 | 34916 ft | 456 kts | 152° |
| 2026-05-06 12:50 | 46.38923 | 16.26292 | 34886 ft | 456 kts | 151° |
| 2026-05-06 12:50 | 46.33663 | 16.31408 | 34900 ft | 455 kts | 153° |
| 2026-05-06 12:51 | 46.28327 | 16.36308 | 34911 ft | 454 kts | 154° |
| 2026-05-06 12:51 | 46.22973 | 16.41172 | 34916 ft | 455 kts | 154° |
| 2026-05-06 12:52 | 46.17641 | 16.46069 | 34905 ft | 454 kts | 153° |
| 2026-05-06 12:52 | 46.12323 | 16.50974 | 34916 ft | 453 kts | 153° |
| 2026-05-06 12:53 | 46.07008 | 16.55869 | 34906 ft | 453 kts | 153° |
| 2026-05-06 12:53 | 46.01682 | 16.60753 | 34907 ft | 453 kts | 153° |
| 2026-05-06 12:54 | 45.96360 | 16.65617 | 34909 ft | 453 kts | 153° |
| 2026-05-06 12:54 | 45.91035 | 16.70465 | 34912 ft | 453 kts | 153° |
| 2026-05-06 12:55 | 45.85715 | 16.75305 | 34923 ft | 453 kts | 153° |
| 2026-05-06 12:55 | 45.80401 | 16.80129 | 34897 ft | 452 kts | 153° |
| 2026-05-06 12:56 | 45.75075 | 16.84955 | 34899 ft | 453 kts | 153° |
| 2026-05-06 12:56 | 45.70644 | 16.88966 | 34899 ft | 453 kts | 153° |
| 2026-05-06 12:57 | 45.65316 | 16.93774 | 34905 ft | 453 kts | 153° |
| 2026-05-06 12:57 | 45.59976 | 16.98570 | 34914 ft | 453 kts | 153° |
| 2026-05-06 12:58 | 45.54636 | 17.03362 | 34901 ft | 454 kts | 153° |
| 2026-05-06 12:58 | 45.49292 | 17.08152 | 34899 ft | 454 kts | 153° |
| 2026-05-06 12:59 | 45.43943 | 17.12931 | 34901 ft | 454 kts | 153° |
| 2026-05-06 12:59 | 45.38581 | 17.17708 | 34900 ft | 454 kts | 153° |
| 2026-05-06 13:00 | 45.33231 | 17.22474 | 34903 ft | 454 kts | 153° |
| 2026-05-06 13:00 | 45.27870 | 17.27238 | 34888 ft | 455 kts | 153° |
| 2026-05-06 13:01 | 45.22502 | 17.31992 | 34884 ft | 455 kts | 153° |
| 2026-05-06 13:01 | 45.17129 | 17.36741 | 34890 ft | 455 kts | 153° |
| 2026-05-06 13:02 | 45.11766 | 17.41506 | 34889 ft | 456 kts | 152° |
| 2026-05-06 13:02 | 45.06544 | 17.46637 | 34895 ft | 458 kts | 149° |
| 2026-05-06 13:03 | 45.01389 | 17.51939 | 34879 ft | 458 kts | 149° |
| 2026-05-06 13:03 | 44.96204 | 17.57185 | 34895 ft | 458 kts | 149° |
| 2026-05-06 13:04 | 44.90984 | 17.62343 | 34893 ft | 458 kts | 150° |
| 2026-05-06 13:04 | 44.85752 | 17.67473 | 34905 ft | 458 kts | 150° |
| 2026-05-06 13:05 | 44.80527 | 17.72608 | 34892 ft | 458 kts | 150° |
| 2026-05-06 13:05 | 44.75300 | 17.77745 | 34877 ft | 459 kts | 149° |
| 2026-05-06 13:06 | 44.70066 | 17.82883 | 34890 ft | 459 kts | 149° |
| 2026-05-06 13:06 | 44.64834 | 17.88008 | 34898 ft | 459 kts | 149° |
| 2026-05-06 13:07 | 44.59592 | 17.93119 | 34899 ft | 458 kts | 149° |
| 2026-05-06 13:07 | 44.54352 | 17.98226 | 34901 ft | 459 kts | 149° |
| 2026-05-06 13:08 | 44.49139 | 18.03295 | 34895 ft | 460 kts | 149° |
| 2026-05-06 13:08 | 44.43876 | 18.08390 | 34923 ft | 460 kts | 149° |
| 2026-05-06 13:09 | 44.38610 | 18.13481 | 34928 ft | 460 kts | 149° |
| 2026-05-06 13:09 | 44.33349 | 18.18569 | 34930 ft | 460 kts | 149° |
| 2026-05-06 13:10 | 44.28080 | 18.23648 | 34923 ft | 460 kts | 149° |
| 2026-05-06 13:10 | 44.22799 | 18.28719 | 34929 ft | 461 kts | 149° |
| 2026-05-06 13:11 | 44.17521 | 18.33784 | 34945 ft | 461 kts | 149° |
| 2026-05-06 13:11 | 44.12234 | 18.38848 | 34951 ft | 461 kts | 149° |
| 2026-05-06 13:12 | 44.06940 | 18.43898 | 34964 ft | 461 kts | 149° |
| 2026-05-06 13:12 | 44.01653 | 18.48931 | 34971 ft | 461 kts | 149° |
| 2026-05-06 13:13 | 43.96360 | 18.53959 | 34975 ft | 460 kts | 149° |
| 2026-05-06 13:13 | 43.91076 | 18.58973 | 34982 ft | 460 kts | 149° |
| 2026-05-06 13:14 | 43.85790 | 18.63987 | 34987 ft | 460 kts | 149° |
| 2026-05-06 13:14 | 43.80505 | 18.68983 | 34979 ft | 460 kts | 149° |
| 2026-05-06 13:15 | 43.75207 | 18.73969 | 34981 ft | 461 kts | 149° |
| 2026-05-06 13:15 | 43.69902 | 18.78943 | 34988 ft | 461 kts | 149° |
| 2026-05-06 13:16 | 43.64595 | 18.83918 | 35000 ft | 461 kts | 149° |
| 2026-05-06 13:16 | 43.59290 | 18.88887 | 34974 ft | 461 kts | 149° |
| 2026-05-06 13:17 | 43.53979 | 18.93852 | 34975 ft | 462 kts | 149° |
| 2026-05-06 13:17 | 43.48656 | 18.98822 | 34980 ft | 463 kts | 149° |
| 2026-05-06 13:18 | 43.43355 | 19.03750 | 34995 ft | 463 kts | 149° |
| 2026-05-06 13:18 | 43.38022 | 19.08694 | 35008 ft | 462 kts | 149° |
| 2026-05-06 13:19 | 43.32682 | 19.13637 | 34994 ft | 463 kts | 149° |
| 2026-05-06 13:19 | 43.27343 | 19.18578 | 34998 ft | 463 kts | 149° |
| 2026-05-06 13:20 | 43.21993 | 19.23511 | 35005 ft | 463 kts | 150° |
| 2026-05-06 13:20 | 43.16634 | 19.28438 | 35016 ft | 464 kts | 150° |
| 2026-05-06 13:21 | 43.11275 | 19.33347 | 35020 ft | 464 kts | 150° |
| 2026-05-06 13:21 | 43.05912 | 19.38257 | 35032 ft | 464 kts | 150° |
| 2026-05-06 13:22 | 43.00548 | 19.43164 | 35039 ft | 464 kts | 150° |
| 2026-05-06 13:22 | 42.95184 | 19.48066 | 35036 ft | 464 kts | 150° |
| 2026-05-06 13:23 | 42.89812 | 19.52959 | 35018 ft | 464 kts | 150° |
| 2026-05-06 13:23 | 42.84431 | 19.57850 | 35024 ft | 465 kts | 150° |
| 2026-05-06 13:24 | 42.79051 | 19.62726 | 35035 ft | 465 kts | 150° |
| 2026-05-06 13:24 | 42.73662 | 19.67602 | 35045 ft | 465 kts | 150° |
| 2026-05-06 13:25 | 42.68269 | 19.72478 | 35039 ft | 465 kts | 150° |
| 2026-05-06 13:25 | 42.62878 | 19.77332 | 35052 ft | 465 kts | 150° |
| 2026-05-06 13:26 | 42.57473 | 19.82186 | 35050 ft | 466 kts | 150° |
| 2026-05-06 13:26 | 42.52065 | 19.87034 | 35056 ft | 467 kts | 150° |
| 2026-05-06 13:27 | 42.46644 | 19.91878 | 35056 ft | 467 kts | 150° |
| 2026-05-06 13:27 | 42.41221 | 19.96722 | 35058 ft | 467 kts | 150° |
| 2026-05-06 13:28 | 42.35799 | 20.01557 | 35072 ft | 467 kts | 150° |
| 2026-05-06 13:28 | 42.30369 | 20.06385 | 35072 ft | 467 kts | 150° |
| 2026-05-06 13:29 | 42.24973 | 20.11176 | 35074 ft | 467 kts | 150° |
| 2026-05-06 13:29 | 42.19542 | 20.15992 | 35063 ft | 467 kts | 150° |
| 2026-05-06 13:30 | 42.14102 | 20.20801 | 35063 ft | 468 kts | 150° |
| 2026-05-06 13:30 | 42.08649 | 20.25607 | 35064 ft | 468 kts | 150° |
| 2026-05-06 13:31 | 42.03196 | 20.30403 | 35072 ft | 469 kts | 150° |
| 2026-05-06 13:31 | 41.97732 | 20.35204 | 35073 ft | 469 kts | 150° |
| 2026-05-06 13:32 | 41.92277 | 20.39990 | 35077 ft | 469 kts | 150° |
| 2026-05-06 13:32 | 41.86808 | 20.44774 | 35086 ft | 469 kts | 150° |
| 2026-05-06 13:33 | 41.81341 | 20.49546 | 35071 ft | 469 kts | 150° |
| 2026-05-06 13:33 | 41.75869 | 20.54315 | 35070 ft | 470 kts | 149° |
| 2026-05-06 13:34 | 41.70466 | 20.59274 | 35069 ft | 471 kts | 148° |
| 2026-05-06 13:34 | 41.65131 | 20.64363 | 35063 ft | 472 kts | 147° |
| 2026-05-06 13:35 | 41.59771 | 20.69431 | 35071 ft | 471 kts | 148° |
| 2026-05-06 13:35 | 41.54394 | 20.74439 | 35064 ft | 471 kts | 148° |
| 2026-05-06 13:36 | 41.49005 | 20.79430 | 35062 ft | 471 kts | 148° |
| 2026-05-06 13:36 | 41.43621 | 20.84417 | 35067 ft | 472 kts | 148° |
| 2026-05-06 13:37 | 41.38233 | 20.89411 | 35068 ft | 472 kts | 148° |
| 2026-05-06 13:37 | 41.32837 | 20.94391 | 35072 ft | 472 kts | 148° |
| 2026-05-06 13:38 | 41.27432 | 20.99369 | 35079 ft | 472 kts | 148° |
| 2026-05-06 13:38 | 41.22032 | 21.04346 | 35064 ft | 472 kts | 148° |
| 2026-05-06 13:39 | 41.16661 | 21.09280 | 35066 ft | 472 kts | 148° |
| 2026-05-06 13:39 | 41.11247 | 21.14226 | 35069 ft | 473 kts | 148° |
| 2026-05-06 13:40 | 41.05831 | 21.19174 | 35045 ft | 473 kts | 148° |
| 2026-05-06 13:40 | 41.00404 | 21.24119 | 35040 ft | 474 kts | 148° |
| 2026-05-06 13:41 | 40.94995 | 21.29038 | 35041 ft | 474 kts | 148° |
| 2026-05-06 13:41 | 40.89560 | 21.33968 | 35043 ft | 474 kts | 148° |
| 2026-05-06 13:42 | 40.84131 | 21.38927 | 35045 ft | 474 kts | 147° |
| 2026-05-06 13:42 | 40.78746 | 21.43966 | 35046 ft | 475 kts | 147° |
| 2026-05-06 13:43 | 40.73366 | 21.49016 | 35047 ft | 475 kts | 147° |
| 2026-05-06 13:43 | 40.68881 | 21.53190 | 35055 ft | 475 kts | 147° |
| 2026-05-06 13:44 | 40.63476 | 21.58185 | 35036 ft | 474 kts | 147° |
| 2026-05-06 13:44 | 40.58073 | 21.63171 | 35037 ft | 474 kts | 147° |
| 2026-05-06 13:45 | 40.52670 | 21.68160 | 35051 ft | 474 kts | 147° |
| 2026-05-06 13:45 | 40.44558 | 21.75615 | 35073 ft | 474 kts | 147° |
| 2026-05-06 13:46 | 40.39148 | 21.80576 | 35080 ft | 474 kts | 147° |
| 2026-05-06 13:46 | 40.33739 | 21.85532 | 35075 ft | 475 kts | 147° |
| 2026-05-06 13:47 | 40.28322 | 21.90493 | 35073 ft | 475 kts | 147° |
| 2026-05-06 13:47 | 40.22897 | 21.95449 | 35059 ft | 476 kts | 148° |
| 2026-05-06 13:48 | 40.17465 | 22.00402 | 35058 ft | 476 kts | 148° |
| 2026-05-06 13:48 | 40.12029 | 22.05340 | 35047 ft | 476 kts | 148° |
| 2026-05-06 13:49 | 40.06587 | 22.10263 | 35033 ft | 476 kts | 148° |
| 2026-05-06 13:49 | 40.01147 | 22.15181 | 35028 ft | 476 kts | 148° |
| 2026-05-06 13:50 | 39.95695 | 22.20104 | 35023 ft | 477 kts | 148° |
| 2026-05-06 13:50 | 39.90237 | 22.25030 | 35016 ft | 478 kts | 148° |
| 2026-05-06 13:51 | 39.84764 | 22.29949 | 35017 ft | 478 kts | 148° |
| 2026-05-06 13:51 | 39.79293 | 22.34865 | 35020 ft | 478 kts | 148° |
| 2026-05-06 13:52 | 39.73824 | 22.39772 | 35008 ft | 478 kts | 148° |
| 2026-05-06 13:52 | 39.68381 | 22.44640 | 35011 ft | 478 kts | 148° |
| 2026-05-06 13:53 | 39.62900 | 22.49523 | 35012 ft | 478 kts | 148° |
| 2026-05-06 13:53 | 39.57413 | 22.54412 | 35013 ft | 479 kts | 148° |
| 2026-05-06 13:54 | 39.51924 | 22.59289 | 35023 ft | 479 kts | 148° |
| 2026-05-06 13:54 | 39.46426 | 22.64169 | 35015 ft | 479 kts | 148° |
| 2026-05-06 13:55 | 39.40930 | 22.69038 | 35015 ft | 479 kts | 148° |
| 2026-05-06 13:55 | 39.35427 | 22.73907 | 35020 ft | 479 kts | 148° |
| 2026-05-06 13:56 | 39.29961 | 22.78738 | 35014 ft | 480 kts | 148° |
| 2026-05-06 13:56 | 39.24445 | 22.83598 | 35007 ft | 480 kts | 148° |
| 2026-05-06 13:57 | 39.18923 | 22.88454 | 35009 ft | 481 kts | 148° |
| 2026-05-06 13:57 | 39.13390 | 22.93313 | 35015 ft | 481 kts | 148° |
| 2026-05-06 13:58 | 39.07856 | 22.98153 | 35018 ft | 481 kts | 148° |
| 2026-05-06 13:58 | 39.02318 | 23.02983 | 35027 ft | 481 kts | 148° |
| 2026-05-06 13:59 | 38.96780 | 23.07817 | 35027 ft | 482 kts | 148° |
| 2026-05-06 13:59 | 38.91230 | 23.12649 | 35037 ft | 482 kts | 148° |
| 2026-05-06 14:00 | 38.85665 | 23.17480 | 35030 ft | 483 kts | 148° |
| 2026-05-06 14:00 | 38.80095 | 23.22299 | 35034 ft | 483 kts | 148° |
| 2026-05-06 14:01 | 38.74515 | 23.27124 | 35036 ft | 484 kts | 148° |
| 2026-05-06 14:01 | 38.68941 | 23.31950 | 35028 ft | 484 kts | 148° |
| 2026-05-06 14:02 | 38.63404 | 23.36737 | 35038 ft | 483 kts | 148° |
| 2026-05-06 14:02 | 38.57824 | 23.41538 | 35042 ft | 483 kts | 148° |
| 2026-05-06 14:03 | 38.52242 | 23.46325 | 35040 ft | 484 kts | 148° |
| 2026-05-06 14:03 | 38.46653 | 23.51114 | 35031 ft | 484 kts | 148° |
| 2026-05-06 14:04 | 38.41063 | 23.55901 | 35039 ft | 484 kts | 148° |
| 2026-05-06 14:04 | 38.35465 | 23.60686 | 35042 ft | 484 kts | 148° |
| 2026-05-06 14:05 | 38.29871 | 23.65447 | 35049 ft | 484 kts | 148° |
| 2026-05-06 14:05 | 38.24265 | 23.70209 | 35054 ft | 484 kts | 148° |
| 2026-05-06 14:06 | 38.18664 | 23.74962 | 35057 ft | 484 kts | 149° |
| 2026-05-06 14:06 | 38.13082 | 23.79752 | 35046 ft | 485 kts | 147° |
| 2026-05-06 14:07 | 38.07536 | 23.84663 | 35047 ft | 486 kts | 147° |
| 2026-05-06 14:07 | 38.02003 | 23.89581 | 35053 ft | 486 kts | 147° |
| 2026-05-06 14:08 | 37.96441 | 23.94474 | 35069 ft | 486 kts | 147° |
| 2026-05-06 14:08 | 37.90872 | 23.99332 | 35062 ft | 486 kts | 147° |
| 2026-05-06 14:09 | 37.85328 | 24.04150 | 35070 ft | 486 kts | 147° |
| 2026-05-06 14:09 | 37.79821 | 24.08953 | 35076 ft | 486 kts | 147° |
| 2026-05-06 14:10 | 37.74251 | 24.13801 | 35071 ft | 487 kts | 147° |
| 2026-05-06 14:10 | 37.68839 | 24.18498 | 35067 ft | 487 kts | 147° |
| 2026-05-06 14:11 | 37.63252 | 24.23342 | 35062 ft | 487 kts | 147° |
| 2026-05-06 14:11 | 37.57669 | 24.28185 | 35070 ft | 487 kts | 147° |
| 2026-05-06 14:12 | 37.52044 | 24.32926 | 35072 ft | 486 kts | 149° |
| 2026-05-06 14:12 | 37.46292 | 24.37407 | 35073 ft | 486 kts | 151° |
| 2026-05-06 14:13 | 37.40514 | 24.41820 | 35062 ft | 486 kts | 150° |
| 2026-05-06 14:13 | 37.34758 | 24.46288 | 35064 ft | 486 kts | 150° |
| 2026-05-06 14:14 | 37.29015 | 24.50808 | 35066 ft | 487 kts | 149° |
| 2026-05-06 14:14 | 37.23277 | 24.55308 | 35072 ft | 487 kts | 150° |
| 2026-05-06 14:15 | 37.17519 | 24.59793 | 35071 ft | 487 kts | 150° |
| 2026-05-06 14:15 | 37.11768 | 24.64258 | 35076 ft | 487 kts | 150° |
| 2026-05-06 14:16 | 37.06008 | 24.68722 | 35077 ft | 486 kts | 150° |
| 2026-05-06 14:16 | 37.00262 | 24.73178 | 35082 ft | 486 kts | 150° |
| 2026-05-06 14:17 | 36.94511 | 24.77634 | 35092 ft | 486 kts | 150° |
| 2026-05-06 14:17 | 36.88763 | 24.82078 | 35089 ft | 486 kts | 150° |
| 2026-05-06 14:18 | 36.83019 | 24.86528 | 35083 ft | 485 kts | 150° |
| 2026-05-06 14:18 | 36.77278 | 24.90961 | 35083 ft | 485 kts | 150° |
| 2026-05-06 14:19 | 36.71582 | 24.95353 | 35087 ft | 485 kts | 150° |
| 2026-05-06 14:19 | 36.65809 | 24.99796 | 35085 ft | 485 kts | 150° |
| 2026-05-06 14:20 | 36.62935 | 25.01997 | 34938 ft | 486 kts | 150° |
| 2026-05-06 14:20 | 36.60089 | 25.04172 | 34689 ft | 486 kts | 150° |
| 2026-05-06 14:20 | 36.57168 | 25.06403 | 34445 ft | 487 kts | 150° |
| 2026-05-06 14:20 | 36.54317 | 25.08580 | 34089 ft | 487 kts | 150° |
| 2026-05-06 14:21 | 36.51406 | 25.10802 | 32901 ft | 495 kts | 150° |
| 2026-05-06 14:21 | 36.48462 | 25.13050 | 31902 ft | 499 kts | 150° |
| 2026-05-06 14:21 | 36.45484 | 25.15323 | 30787 ft | 505 kts | 149° |
| 2026-05-06 14:21 | 36.42437 | 25.17648 | 29536 ft | 512 kts | 149° |
| 2026-05-06 14:22 | 36.39430 | 25.19942 | 28345 ft | 514 kts | 149° |
| 2026-05-06 14:22 | 36.36365 | 25.22276 | 27101 ft | 518 kts | 149° |
| 2026-05-06 14:22 | 36.33234 | 25.24656 | 25889 ft | 522 kts | 149° |
| 2026-05-06 14:22 | 36.30190 | 25.26969 | 24900 ft | 520 kts | 149° |
| 2026-05-06 14:23 | 36.27118 | 25.29300 | 23989 ft | 517 kts | 149° |
| 2026-05-06 14:23 | 36.24060 | 25.31619 | 23020 ft | 513 kts | 149° |
| 2026-05-06 14:23 | 36.21041 | 25.33904 | 22213 ft | 505 kts | 149° |
| 2026-05-06 14:23 | 36.18055 | 25.36158 | 21477 ft | 498 kts | 149° |
| 2026-05-06 14:24 | 36.15106 | 25.38383 | 20632 ft | 493 kts | 149° |
| 2026-05-06 14:24 | 36.12487 | 25.40214 | 19930 ft | 488 kts | 155° |
| 2026-05-06 14:24 | 36.09349 | 25.41701 | 19301 ft | 479 kts | 163° |
| 2026-05-06 14:24 | 36.06181 | 25.42966 | 18583 ft | 474 kts | 163° |
| 2026-05-06 14:25 | 36.03068 | 25.44209 | 17815 ft | 469 kts | 163° |
| 2026-05-06 14:25 | 35.99995 | 25.45444 | 17206 ft | 461 kts | 163° |
| 2026-05-06 14:25 | 35.96964 | 25.46663 | 16592 ft | 454 kts | 163° |
| 2026-05-06 14:25 | 35.93987 | 25.47860 | 16020 ft | 446 kts | 163° |
| 2026-05-06 14:26 | 35.91062 | 25.49039 | 15453 ft | 439 kts | 163° |
| 2026-05-06 14:26 | 35.88185 | 25.50201 | 14893 ft | 432 kts | 163° |
| 2026-05-06 14:26 | 35.85350 | 25.51343 | 14330 ft | 427 kts | 163° |
| 2026-05-06 14:26 | 35.82542 | 25.52470 | 13716 ft | 422 kts | 163° |
| 2026-05-06 14:27 | 35.80703 | 25.53207 | 13294 ft | 418 kts | 163° |
| 2026-05-06 14:27 | 35.77032 | 25.54675 | 12469 ft | 411 kts | 162° |
| 2026-05-06 14:27 | 35.74324 | 25.55755 | 11810 ft | 407 kts | 162° |
| 2026-05-06 14:27 | 35.71642 | 25.56835 | 11197 ft | 403 kts | 160° |
| 2026-05-06 14:28 | 35.69160 | 25.58263 | 11044 ft | 386 kts | 149° |
| 2026-05-06 14:28 | 35.67026 | 25.60127 | 10920 ft | 368 kts | 140° |
| 2026-05-06 14:28 | 35.65073 | 25.62053 | 10797 ft | 353 kts | 140° |
| 2026-05-06 14:28 | 35.63216 | 25.63877 | 10679 ft | 340 kts | 140° |
| 2026-05-06 14:29 | 35.61262 | 25.65464 | 10561 ft | 328 kts | 158° |
| 2026-05-06 14:29 | 35.59113 | 25.65919 | 10340 ft | 312 kts | 186° |
| 2026-05-06 14:29 | 35.57108 | 25.65149 | 10167 ft | 301 kts | 214° |
| 2026-05-06 14:29 | 35.55596 | 25.63426 | 10064 ft | 296 kts | 239° |
| 2026-05-06 14:30 | 35.54586 | 25.61274 | 9577 ft | 289 kts | 244° |
| 2026-05-06 14:30 | 35.53638 | 25.59105 | 8914 ft | 287 kts | 245° |
| 2026-05-06 14:30 | 35.52711 | 25.56946 | 8252 ft | 285 kts | 245° |
| 2026-05-06 14:30 | 35.51809 | 25.54845 | 7916 ft | 271 kts | 244° |
| 2026-05-06 14:31 | 35.50946 | 25.52850 | 7582 ft | 258 kts | 244° |
| 2026-05-06 14:31 | 35.50119 | 25.50943 | 7252 ft | 248 kts | 244° |
| 2026-05-06 14:31 | 35.49321 | 25.49107 | 6915 ft | 241 kts | 244° |
| 2026-05-06 14:31 | 35.48794 | 25.47891 | 6684 ft | 236 kts | 244° |
| 2026-05-06 14:32 | 35.48039 | 25.46152 | 6313 ft | 232 kts | 244° |
| 2026-05-06 14:32 | 35.47287 | 25.44413 | 5909 ft | 229 kts | 244° |
| 2026-05-06 14:32 | 35.46526 | 25.42709 | 5528 ft | 226 kts | 238° |
| 2026-05-06 14:32 | 35.45413 | 25.41371 | 5228 ft | 221 kts | 212° |
| 2026-05-06 14:33 | 35.44005 | 25.40752 | 4934 ft | 218 kts | 188° |
| 2026-05-06 14:33 | 35.42515 | 25.40886 | 4622 ft | 214 kts | 163° |
| 2026-05-06 14:33 | 35.41197 | 25.41670 | 4411 ft | 206 kts | 151° |
| 2026-05-06 14:33 | 35.39980 | 25.42516 | 4177 ft | 197 kts | 151° |
| 2026-05-06 14:34 | 35.38790 | 25.43333 | 3776 ft | 196 kts | 151° |
| 2026-05-06 14:34 | 35.37532 | 25.43920 | 3367 ft | 193 kts | 176° |
| 2026-05-06 14:34 | 35.36248 | 25.43609 | 3029 ft | 188 kts | 211° |
| 2026-05-06 14:34 | 35.35326 | 25.42503 | 3024 ft | 189 kts | 242° |
| 2026-05-06 14:35 | 35.34750 | 25.41057 | 3017 ft | 189 kts | 246° |
| 2026-05-06 14:35 | 35.34186 | 25.39597 | 3011 ft | 189 kts | 246° |
| 2026-05-06 14:35 | 35.33622 | 25.38135 | 3018 ft | 190 kts | 246° |
| 2026-05-06 14:35 | 35.33064 | 25.36671 | 3013 ft | 189 kts | 249° |
| 2026-05-06 14:36 | 35.32789 | 25.35100 | 2877 ft | 190 kts | 270° |
| 2026-05-06 14:36 | 35.32889 | 25.33500 | 2619 ft | 188 kts | 276° |
| 2026-05-06 14:36 | 35.33003 | 25.31926 | 2373 ft | 183 kts | 277° |
| 2026-05-06 14:36 | 35.33110 | 25.30403 | 2122 ft | 177 kts | 276° |
| 2026-05-06 14:37 | 35.33204 | 25.28950 | 1910 ft | 166 kts | 276° |
| 2026-05-06 14:37 | 35.33298 | 25.27611 | 1642 ft | 154 kts | 276° |
| 2026-05-06 14:37 | 35.33391 | 25.26333 | 1344 ft | 147 kts | 276° |
| 2026-05-06 14:37 | 35.33484 | 25.25081 | 1139 ft | 148 kts | 276° |
| 2026-05-06 14:38 | 35.33582 | 25.23816 | 944 ft | 149 kts | 276° |
| 2026-05-06 14:38 | 35.33671 | 25.22555 | 682 ft | 148 kts | 276° |
| 2026-05-06 14:38 | 35.33755 | 25.21316 | 499 ft | 144 kts | 276° |
| 2026-05-06 14:38 | 35.33838 | 25.20094 | 315 ft | 144 kts | 275° |
| 2026-05-06 14:39 | 35.33915 | 25.18867 | 109 ft | 143 kts | 276° |
| 2026-05-06 14:39 | 35.33990 | 25.17809 | 93 ft | 91 kts | 275° |
| 2026-05-06 14:39 | 35.34025 | 25.17308 | 90 ft | 42 kts | 275° |
| 2026-05-06 14:39 | 35.34046 | 25.16998 | 92 ft | 33 kts | 275° |
| 2026-05-06 14:40 | 35.34046 | 25.16845 | 90 ft | 8 kts | 225° |
| 2026-05-06 14:40 | 35.34010 | 25.16874 | 92 ft | 6 kts | 124° |
| 2026-05-06 14:40 | 35.33982 | 25.16923 | 90 ft | 11 kts | 124° |
| 2026-05-06 14:40 | 35.33953 | 25.17016 | 92 ft | 13 kts | 101° |
| 2026-05-06 14:41 | 35.33937 | 25.17132 | 90 ft | 15 kts | 96° |
| 2026-05-06 14:41 | 35.33928 | 25.17264 | 91 ft | 17 kts | 95° |
| 2026-05-06 14:41 | 35.33918 | 25.17407 | 91 ft | 19 kts | 95° |
| 2026-05-06 14:41 | 35.33908 | 25.17569 | 93 ft | 17 kts | 94° |
| 2026-05-06 14:42 | 35.33902 | 25.17655 | 91 ft | 9 kts | 95° |
| 2026-05-06 14:42 | 35.33894 | 25.17731 | 93 ft | 9 kts | 106° |
| 2026-05-06 14:42 | 35.33850 | 25.17742 | 95 ft | 6 kts | 194° |
| 2026-05-06 14:42 | 35.33840 | 25.17714 | 94 ft | 5 kts | 263° |
| 2026-05-06 14:43 | 35.33850 | 25.17685 | 91 ft | 3 kts | 308° |
| 2026-05-06 14:43 | 35.33859 | 25.17672 | 93 ft | 1 kts | 314° |
| 2026-05-06 14:43 | 35.33861 | 25.17669 | 93 ft | 0 kts | 313° |